createdAt,value
2017-08-28T00:00:30.307Z,4.10
2017-08-28T00:02:58.645Z,4.57
2017-08-28T00:05:27.206Z,4.50
2017-08-28T00:07:56.365Z,4.10
2017-08-28T00:10:24.729Z,4.30
2017-08-28T00:12:53.079Z,4.20
2017-08-28T00:15:21.830Z,4.90
2017-08-28T00:17:52.054Z,4.17
2017-08-28T00:20:20.677Z,5.20
2017-08-28T00:22:50.160Z,4.50
2017-08-28T00:25:20.409Z,4.80
2017-08-28T00:27:50.110Z,4.43
2017-08-28T00:30:21.121Z,4.50
2017-08-28T00:32:49.471Z,4.13
2017-08-28T00:35:18.668Z,4.47
2017-08-28T00:37:49.267Z,5.10
2017-08-28T00:40:17.595Z,4.30
2017-08-28T00:42:45.967Z,4.90
2017-08-28T00:45:14.663Z,5.10
2017-08-28T00:47:43.040Z,4.50
2017-08-28T00:50:11.533Z,4.70
2017-08-28T00:52:40.272Z,4.40
2017-08-28T00:55:09.653Z,3.67
2017-08-28T00:57:38.564Z,4.33
2017-08-28T01:00:07.528Z,4.37
2017-08-28T01:02:36.138Z,4.60
2017-08-28T01:05:04.481Z,4.17
2017-08-28T01:07:35.914Z,4.60
2017-08-28T01:10:04.608Z,4.37
2017-08-28T01:12:33.021Z,4.17
2017-08-28T01:15:01.754Z,3.67
2017-08-28T01:17:30.141Z,3.97
2017-08-28T01:19:59.693Z,4.13
2017-08-28T01:22:29.864Z,4.20
2017-08-28T01:24:58.208Z,4.43
2017-08-28T01:27:26.555Z,4.03
2017-08-28T01:29:55.257Z,4.03
2017-08-28T01:32:24.848Z,4.30
2017-08-28T01:34:53.961Z,4.33
2017-08-28T01:37:23.430Z,4.07
2017-08-28T01:39:51.823Z,4.40
2017-08-28T01:42:20.180Z,4.40
2017-08-28T01:44:49.603Z,4.30
2017-08-28T01:47:18.728Z,4.20
2017-08-28T01:49:47.105Z,4.07
2017-08-28T01:52:15.697Z,4.30
2017-08-28T01:54:45.704Z,4.40
2017-08-28T01:57:15.099Z,4.10
2017-08-28T01:59:43.870Z,4.43
2017-08-28T02:02:13.315Z,4.60
2017-08-28T02:04:41.669Z,4.20
2017-08-28T02:07:10.547Z,4.60
2017-08-28T02:09:38.924Z,5.00
2017-08-28T02:12:07.496Z,4.60
2017-08-28T02:14:36.366Z,4.67
2017-08-28T02:17:05.910Z,4.20
2017-08-28T02:19:34.250Z,4.90
2017-08-28T02:22:03.006Z,4.53
2017-08-28T02:24:31.380Z,5.00
2017-08-28T02:27:00.504Z,4.70
2017-08-28T02:29:31.313Z,4.13
2017-08-28T02:32:00.439Z,4.37
2017-08-28T02:34:28.793Z,4.67
2017-08-28T02:36:59.047Z,4.43
2017-08-28T02:39:28.162Z,4.53
2017-08-28T02:41:56.511Z,4.50
2017-08-28T02:44:26.148Z,4.40
2017-08-28T02:46:54.498Z,4.47
2017-08-28T02:49:22.851Z,4.03
2017-08-28T02:51:52.574Z,4.53
2017-08-28T02:54:20.943Z,4.53
2017-08-28T02:56:49.306Z,4.03
2017-08-28T02:59:19.627Z,4.27
2017-08-28T03:01:47.992Z,4.40
2017-08-28T03:04:17.944Z,4.23
2017-08-28T03:06:46.707Z,4.63
2017-08-28T03:09:15.283Z,4.63
2017-08-28T03:11:43.860Z,4.23
2017-08-28T03:14:12.689Z,4.40
2017-08-28T03:16:41.278Z,4.40
2017-08-28T03:19:10.455Z,4.80
2017-08-28T03:21:39.090Z,4.87
2017-08-28T03:24:07.450Z,4.50
2017-08-28T03:26:36.584Z,4.87
2017-08-28T03:29:05.211Z,4.43
2017-08-28T03:31:33.576Z,4.47
2017-08-28T03:34:02.715Z,4.87
2017-08-28T03:36:31.803Z,5.83
2017-08-28T03:39:00.658Z,5.47
2017-08-28T03:41:29.003Z,5.23
2017-08-28T03:43:57.939Z,4.90
2017-08-28T03:46:26.278Z,5.70
2017-08-28T03:48:54.644Z,5.40
2017-08-28T03:51:23.544Z,5.00
2017-08-28T03:53:51.860Z,5.07
2017-08-28T03:56:20.216Z,5.33
2017-08-28T03:58:50.901Z,5.97
2017-08-28T04:01:19.249Z,5.20
2017-08-28T04:03:48.972Z,5.77
2017-08-28T04:06:17.678Z,5.33
2017-08-28T04:08:46.599Z,5.50
2017-08-28T04:11:14.988Z,5.03
2017-08-28T04:13:44.052Z,4.53
2017-08-28T04:16:12.451Z,5.50
2017-08-28T04:18:41.092Z,4.97
2017-08-28T04:21:10.055Z,5.40
2017-08-28T04:23:38.546Z,5.77
2017-08-28T04:26:06.949Z,4.80
2017-08-28T04:28:37.363Z,4.80
2017-08-28T04:31:07.202Z,5.83
2017-08-28T04:33:35.559Z,5.50
2017-08-28T04:36:05.222Z,4.70
2017-08-28T04:38:33.799Z,5.30
2017-08-28T04:41:02.160Z,5.60
2017-08-28T04:43:31.931Z,5.53
2017-08-28T04:46:00.486Z,5.43
2017-08-28T04:48:28.834Z,5.80
2017-08-28T04:50:57.713Z,6.27
2017-08-28T04:53:26.216Z,6.40
2017-08-28T04:55:55.267Z,5.63
2017-08-28T04:58:24.071Z,5.80
2017-08-28T05:00:52.417Z,4.30
2017-08-28T05:03:20.763Z,5.40
2017-08-28T05:05:49.488Z,5.83
2017-08-28T05:08:17.840Z,5.40
2017-08-28T05:10:46.189Z,5.27
2017-08-28T05:13:15.549Z,4.90
2017-08-28T05:15:43.894Z,5.13
2017-08-28T05:18:12.456Z,5.27
2017-08-28T05:20:41.131Z,5.30
2017-08-28T05:23:09.493Z,5.20
2017-08-28T05:25:38.900Z,5.13
2017-08-28T05:28:08.027Z,4.60
2017-08-28T05:30:37.047Z,5.47
2017-08-28T05:33:05.558Z,6.43
2017-08-28T05:35:34.482Z,5.13
2017-08-28T05:38:03.459Z,5.17
2017-08-28T05:40:32.027Z,5.27
2017-08-28T05:43:01.938Z,5.50
2017-08-28T05:45:30.326Z,4.53
2017-08-28T05:47:59.618Z,4.60
2017-08-28T05:50:28.439Z,5.33
2017-08-28T05:52:56.955Z,5.50
2017-08-28T05:55:25.307Z,5.70
2017-08-28T05:57:53.960Z,5.10
2017-08-28T06:00:22.321Z,4.90
2017-08-28T06:02:50.665Z,5.27
2017-08-28T06:05:19.304Z,5.17
2017-08-28T06:07:47.807Z,5.10
2017-08-28T06:10:16.803Z,5.20
2017-08-28T06:12:45.727Z,5.70
2017-08-28T06:15:14.065Z,5.17
2017-08-28T06:17:42.428Z,5.20
2017-08-28T06:20:11.126Z,5.30
2017-08-28T06:22:41.005Z,5.73
2017-08-28T06:25:10.655Z,4.80
2017-08-28T06:27:40.375Z,4.97
2017-08-28T06:30:08.733Z,5.23
2017-08-28T06:32:37.296Z,5.43
2017-08-28T06:35:06.171Z,5.50
2017-08-28T06:37:35.484Z,6.17
2017-08-28T06:40:03.832Z,5.60
2017-08-28T06:42:33.108Z,5.43
2017-08-28T06:45:01.479Z,4.90
2017-08-28T06:47:32.092Z,4.40
2017-08-28T06:50:00.858Z,4.90
2017-08-28T06:52:29.189Z,5.50
2017-08-28T06:54:58.439Z,4.70
2017-08-28T06:57:27.528Z,5.00
2017-08-28T06:59:55.928Z,4.43
2017-08-28T07:02:24.885Z,4.50
2017-08-28T07:04:53.749Z,4.17
2017-08-28T07:07:22.163Z,4.50
2017-08-28T07:09:51.101Z,4.80
2017-08-28T07:12:20.827Z,4.70
2017-08-28T07:14:49.175Z,25.60
2017-08-28T07:17:17.537Z,4.00
2017-08-28T07:19:46.324Z,4.37
2017-08-28T07:22:14.671Z,7.10
2017-08-28T07:24:43.021Z,5.83
2017-08-28T07:27:12.751Z,5.50
2017-08-28T07:29:41.126Z,7.53
2017-08-28T07:32:09.758Z,14.97
2017-08-28T07:34:38.854Z,11.90
2017-08-28T07:37:08.104Z,14.80
2017-08-28T07:39:37.241Z,13.70
2017-08-28T07:42:06.919Z,13.30
2017-08-28T07:44:35.298Z,12.37
2017-08-28T07:47:04.122Z,12.77
2017-08-28T07:49:32.975Z,10.13
2017-08-28T07:52:02.184Z,10.00
2017-08-28T07:54:31.949Z,10.43
2017-08-28T07:57:00.621Z,10.40
2017-08-28T07:59:28.966Z,7.37
2017-08-28T08:01:58.323Z,6.63
2017-08-28T08:04:27.379Z,6.37
2017-08-28T08:06:55.723Z,6.40
2017-08-28T08:09:26.312Z,5.80
2017-08-28T08:11:56.902Z,3.17
2017-08-28T08:14:25.490Z,2.90
2017-08-28T08:16:53.899Z,4.17
2017-08-28T08:19:22.749Z,5.63
2017-08-28T08:21:51.166Z,5.23
2017-08-28T08:24:20.045Z,5.20
2017-08-28T08:26:49.007Z,4.70
2017-08-28T08:29:18.126Z,4.40
2017-08-28T08:31:46.479Z,5.03
2017-08-28T08:34:21.354Z,4.83
2017-08-28T08:36:49.695Z,4.63
2017-08-28T08:39:18.051Z,4.00
2017-08-28T08:41:48.370Z,3.43
2017-08-28T08:44:17.491Z,3.63
2017-08-28T08:46:46.625Z,3.67
2017-08-28T08:49:16.299Z,3.77
2017-08-28T08:51:45.436Z,2.80
2017-08-28T08:54:14.740Z,2.40
2017-08-28T08:56:44.099Z,3.23
2017-08-28T08:59:12.486Z,2.80
2017-08-28T09:01:40.851Z,2.80
2017-08-28T09:04:10.806Z,2.30
2017-08-28T09:09:19.825Z,3.10
2017-08-28T09:11:48.838Z,2.60
2017-08-28T09:14:17.190Z,2.47
2017-08-28T09:16:46.642Z,1.93
2017-08-28T09:19:15.006Z,2.00
2017-08-28T09:21:43.359Z,2.20
2017-08-28T09:24:12.250Z,1.90
2017-08-28T09:26:41.231Z,1.93
2017-08-28T09:29:09.590Z,1.93
2017-08-28T09:31:38.824Z,2.10
2017-08-28T09:34:07.419Z,1.97
2017-08-28T09:36:35.782Z,1.97
2017-08-28T09:39:04.424Z,2.00
2017-08-28T09:41:32.775Z,2.50
2017-08-28T09:44:01.137Z,2.33
2017-08-28T09:46:29.910Z,2.30
2017-08-28T09:48:59.046Z,2.30
2017-08-28T09:51:27.401Z,2.27
2017-08-28T09:53:56.077Z,2.17
2017-08-28T09:56:24.743Z,2.53
2017-08-28T09:58:54.118Z,1.90
2017-08-28T10:01:22.752Z,2.10
2017-08-28T10:03:51.099Z,2.10
2017-08-28T10:06:19.456Z,2.20
2017-08-28T10:08:48.539Z,2.00
2017-08-28T10:11:16.931Z,1.83
2017-08-28T10:13:45.335Z,2.23
2017-08-28T10:16:15.193Z,2.20
2017-08-28T10:18:43.755Z,2.30
2017-08-28T10:21:12.154Z,2.60
2017-08-28T10:23:41.174Z,2.10
2017-08-28T10:26:10.473Z,2.13
2017-08-28T10:28:38.906Z,2.30
2017-08-28T10:31:08.607Z,2.30
2017-08-28T10:33:38.403Z,2.73
2017-08-28T10:36:06.784Z,2.00
2017-08-28T10:38:36.012Z,2.10
2017-08-28T10:41:04.385Z,2.80
2017-08-28T10:43:32.732Z,2.00
2017-08-28T10:46:01.932Z,2.20
2017-08-28T10:48:31.903Z,2.43
2017-08-28T10:51:00.467Z,2.70
2017-08-28T10:53:29.376Z,2.37
2017-08-28T10:55:57.761Z,2.27
2017-08-28T10:58:26.141Z,2.60
2017-08-28T11:00:54.968Z,3.30
2017-08-28T11:03:23.327Z,3.30
2017-08-28T11:05:51.709Z,2.37
2017-08-28T11:08:20.741Z,2.33
2017-08-28T11:10:49.814Z,2.80
2017-08-28T11:13:18.150Z,2.33
2017-08-28T11:15:47.644Z,2.93
2017-08-28T11:18:16.004Z,2.40
2017-08-28T11:20:44.341Z,2.80
2017-08-28T11:23:13.788Z,2.97
2017-08-28T11:25:42.124Z,2.63
2017-08-28T11:28:10.467Z,3.13
2017-08-28T11:30:39.877Z,2.83
2017-08-28T11:33:08.486Z,2.70
2017-08-28T11:35:36.866Z,2.63
2017-08-28T11:38:06.101Z,2.90
2017-08-28T11:40:34.511Z,2.50
2017-08-28T11:43:02.895Z,2.43
2017-08-28T11:45:31.682Z,3.07
2017-08-28T11:48:00.036Z,2.90
2017-08-28T11:50:29.028Z,2.10
2017-08-28T11:52:58.055Z,2.90
2017-08-28T11:55:27.159Z,2.90
2017-08-28T11:57:58.146Z,2.70
2017-08-28T12:00:26.864Z,3.30
2017-08-28T12:02:55.259Z,3.30
2017-08-28T12:05:24.624Z,3.00
2017-08-28T12:07:54.333Z,3.13
2017-08-28T12:10:22.686Z,3.00
2017-08-28T12:12:51.037Z,3.00
2017-08-28T12:15:20.602Z,3.90
2017-08-28T12:17:49.853Z,3.37
2017-08-28T12:20:18.202Z,3.20
2017-08-28T12:22:47.498Z,3.10
2017-08-28T12:25:16.346Z,3.40
2017-08-28T12:27:44.734Z,3.57
2017-08-28T12:30:13.891Z,3.03
2017-08-28T12:32:42.218Z,3.20
2017-08-28T12:35:10.601Z,3.40
2017-08-28T12:37:39.677Z,3.20
2017-08-28T12:40:08.040Z,2.87
2017-08-28T12:42:37.098Z,3.40
2017-08-28T12:45:06.612Z,3.40
2017-08-28T12:47:36.348Z,3.33
2017-08-28T12:50:04.731Z,3.20
2017-08-28T12:52:34.282Z,2.73
2017-08-28T12:55:02.657Z,3.23
2017-08-28T12:57:31.020Z,3.33
2017-08-28T13:00:00.483Z,3.50
2017-08-28T13:02:29.632Z,3.17
2017-08-28T13:04:58.010Z,2.70
2017-08-28T13:07:28.527Z,2.60
2017-08-28T13:09:56.895Z,2.50
2017-08-28T13:12:25.266Z,2.77
2017-08-28T13:14:54.438Z,2.93
2017-08-28T13:17:23.581Z,3.20
2017-08-28T13:19:52.507Z,3.60
2017-08-28T13:22:21.459Z,2.97
2017-08-28T13:24:50.407Z,2.77
2017-08-28T13:27:19.478Z,2.80
2017-08-28T13:29:48.154Z,3.00
2017-08-28T13:32:16.501Z,3.40
2017-08-28T13:34:45.631Z,3.17
2017-08-28T13:37:14.985Z,3.30
2017-08-28T13:39:43.380Z,2.97
2017-08-28T13:42:13.275Z,3.40
2017-08-28T13:44:41.957Z,3.43
2017-08-28T13:47:11.129Z,3.47
2017-08-28T13:49:39.541Z,3.30
2017-08-28T13:52:09.176Z,3.60
2017-08-28T13:54:37.632Z,3.90
2017-08-28T13:57:06.011Z,4.07
2017-08-28T13:59:35.218Z,3.80
2017-08-28T14:02:05.168Z,4.00
2017-08-28T14:04:34.159Z,3.43
2017-08-28T14:07:03.104Z,3.57
2017-08-28T14:09:31.427Z,3.60
2017-08-28T14:11:59.782Z,3.00
2017-08-28T14:14:28.485Z,3.07
2017-08-28T14:16:56.830Z,3.30
2017-08-28T14:19:25.223Z,3.43
2017-08-28T14:21:54.031Z,3.87
2017-08-28T14:24:22.421Z,2.90
2017-08-28T14:26:51.034Z,3.27
2017-08-28T14:29:20.477Z,3.47
2017-08-28T14:31:48.864Z,3.77
2017-08-28T14:34:17.223Z,3.20
2017-08-28T14:36:45.971Z,2.77
2017-08-28T14:39:14.309Z,3.50
2017-08-28T14:41:43.670Z,3.23
2017-08-28T14:44:13.312Z,3.60
2017-08-28T14:46:41.666Z,3.40
2017-08-28T14:49:10.241Z,3.17
2017-08-28T14:51:38.928Z,3.37
2017-08-28T14:54:07.367Z,3.53
2017-08-28T14:56:35.755Z,3.40
2017-08-28T14:59:04.928Z,3.77
2017-08-28T15:01:34.114Z,3.57
2017-08-28T15:04:02.470Z,3.57
2017-08-28T15:06:31.588Z,3.43
2017-08-28T15:08:59.956Z,3.53
2017-08-28T15:11:29.463Z,3.40
2017-08-28T15:13:59.554Z,3.13
2017-08-28T15:16:28.652Z,3.40
2017-08-28T15:18:58.917Z,3.87
2017-08-28T15:21:27.591Z,3.07
2017-08-28T15:23:55.943Z,3.73
2017-08-28T15:26:25.071Z,3.70
2017-08-28T15:28:54.008Z,3.70
2017-08-28T15:31:22.389Z,3.30
2017-08-28T15:33:50.783Z,3.70
2017-08-28T15:36:20.185Z,4.00
2017-08-28T15:38:48.549Z,3.87
2017-08-28T15:41:16.876Z,3.43
2017-08-28T15:43:45.524Z,3.37
2017-08-28T15:46:13.865Z,3.37
2017-08-28T15:48:42.812Z,3.40
2017-08-28T15:51:12.430Z,3.10
2017-08-28T15:53:40.796Z,3.50
2017-08-28T15:56:09.969Z,3.50
2017-08-28T15:58:38.637Z,3.27
2017-08-28T16:01:07.010Z,3.40
2017-08-28T16:03:36.229Z,3.40
2017-08-28T16:06:04.959Z,3.87
2017-08-28T16:08:33.319Z,3.33
2017-08-28T16:11:01.715Z,3.27
2017-08-28T16:13:31.252Z,4.50
2017-08-28T16:16:00.883Z,3.63
2017-08-28T16:18:29.240Z,3.60
2017-08-28T16:20:58.330Z,3.57
2017-08-28T16:23:26.675Z,3.47
2017-08-28T16:25:55.660Z,3.43
2017-08-28T16:28:24.575Z,4.23
2017-08-28T16:30:52.970Z,3.00
2017-08-28T16:33:21.395Z,2.87
2017-08-28T16:35:50.175Z,3.17
2017-08-28T16:38:18.539Z,3.70
2017-08-28T16:40:46.873Z,3.60
2017-08-28T16:43:16.498Z,3.27
2017-08-28T16:45:44.839Z,3.20
2017-08-28T16:48:13.235Z,3.33
2017-08-28T16:50:43.011Z,3.67
2017-08-28T16:53:11.634Z,3.80
2017-08-28T16:55:40.735Z,4.20
2017-08-28T16:58:10.480Z,3.30
2017-08-28T17:00:38.949Z,3.03
2017-08-28T17:03:07.513Z,3.73
2017-08-28T17:05:36.296Z,3.90
2017-08-28T17:08:05.564Z,3.97
2017-08-28T17:10:34.404Z,4.17
2017-08-28T17:13:03.610Z,4.17
2017-08-28T17:15:32.631Z,3.10
2017-08-28T17:18:01.729Z,3.97
2017-08-28T17:20:30.676Z,4.17
2017-08-28T17:23:00.934Z,4.10
2017-08-28T17:25:30.044Z,3.53
2017-08-28T17:27:58.745Z,4.07
2017-08-28T17:30:27.163Z,3.57
2017-08-28T17:32:55.658Z,4.63
2017-08-28T17:35:24.317Z,3.70
2017-08-28T17:37:52.844Z,3.90
2017-08-28T17:40:22.723Z,4.07
2017-08-28T17:42:51.530Z,3.80
2017-08-28T17:45:19.941Z,4.37
2017-08-28T17:47:48.320Z,4.07
2017-08-28T17:50:17.236Z,4.27
2017-08-28T17:52:45.596Z,4.10
2017-08-28T17:55:14.002Z,4.90
2017-08-28T17:57:43.610Z,4.73
2017-08-28T18:00:12.014Z,4.47
2017-08-28T18:02:41.043Z,4.77
2017-08-28T18:05:09.987Z,4.53
2017-08-28T18:07:38.340Z,4.60
2017-08-28T18:10:06.732Z,4.80
2017-08-28T18:12:35.615Z,5.10
2017-08-28T18:15:04.021Z,4.20
2017-08-28T18:17:33.208Z,4.83
2017-08-28T18:20:02.313Z,5.33
2017-08-28T18:22:31.461Z,5.53
2017-08-28T18:24:59.992Z,5.90
2017-08-28T18:27:30.340Z,5.83
2017-08-28T18:29:58.702Z,5.90
2017-08-28T18:32:27.446Z,6.30
2017-08-28T18:34:56.118Z,5.23
2017-08-28T18:37:24.572Z,5.33
2017-08-28T18:39:53.220Z,5.00
2017-08-28T18:42:22.901Z,6.70
2017-08-28T18:44:51.593Z,5.80
2017-08-28T18:47:20.012Z,5.63
2017-08-28T18:49:49.038Z,6.03
2017-08-28T18:52:17.407Z,6.33
2017-08-28T18:54:46.583Z,6.67
2017-08-28T18:57:15.271Z,6.10
2017-08-28T18:59:44.460Z,6.70
2017-08-28T19:02:12.851Z,6.50
2017-08-28T19:04:41.624Z,6.47
2017-08-28T19:07:10.964Z,7.13
2017-08-28T19:09:40.099Z,7.90
2017-08-28T19:12:08.901Z,7.10
2017-08-28T19:14:37.586Z,7.17
2017-08-28T19:17:06.628Z,8.60
2017-08-28T19:19:35.349Z,7.10
2017-08-28T19:22:04.471Z,5.90
2017-08-28T19:24:33.484Z,7.20
2017-08-28T19:27:02.176Z,5.93
2017-08-28T19:29:30.540Z,7.00
2017-08-28T19:31:58.924Z,6.13
2017-08-28T19:34:35.340Z,6.13
2017-08-28T19:37:03.710Z,6.47
2017-08-28T19:39:32.062Z,5.70
2017-08-28T19:42:01.155Z,6.00
2017-08-28T19:44:30.295Z,5.20
2017-08-28T19:46:58.878Z,5.80
2017-08-28T19:49:27.596Z,6.40
2017-08-28T19:51:56.538Z,6.20
2017-08-28T19:54:25.555Z,5.70
2017-08-28T19:56:54.521Z,6.70
2017-08-28T19:59:22.851Z,5.60
2017-08-28T20:01:51.196Z,5.40
2017-08-28T20:04:20.045Z,6.10
2017-08-28T20:06:49.187Z,6.07
2017-08-28T20:09:17.543Z,5.70
2017-08-28T20:11:46.418Z,6.70
2017-08-28T20:14:14.788Z,6.90
2017-08-28T20:16:43.136Z,6.50
2017-08-28T20:19:12.410Z,6.60
2017-08-28T20:21:40.805Z,7.13
2017-08-28T20:24:09.222Z,5.80
2017-08-28T20:26:39.621Z,6.70
2017-08-28T20:29:07.967Z,6.97
2017-08-28T20:31:36.369Z,7.10
2017-08-28T20:34:05.044Z,6.90
2017-08-28T20:36:33.998Z,7.13
2017-08-28T20:39:02.363Z,6.47
2017-08-28T20:41:31.314Z,6.50
2017-08-28T20:43:59.679Z,6.60
2017-08-28T20:46:28.038Z,6.63
2017-08-28T20:48:56.714Z,6.67
2017-08-28T20:51:25.046Z,6.53
2017-08-28T20:53:54.426Z,6.70
2017-08-28T20:56:23.175Z,6.30
2017-08-28T20:58:51.532Z,5.30
2017-08-28T21:01:19.944Z,6.70
2017-08-28T21:03:49.504Z,7.03
2017-08-28T21:06:17.825Z,5.77
2017-08-28T21:08:46.963Z,6.53
2017-08-28T21:11:17.079Z,6.47
2017-08-28T21:13:45.417Z,6.10
2017-08-28T21:16:13.770Z,5.53
2017-08-28T21:18:43.459Z,4.93
2017-08-28T21:21:11.942Z,5.67
2017-08-28T21:23:40.295Z,6.23
2017-08-28T21:26:09.292Z,6.23
2017-08-28T21:28:38.134Z,5.67
2017-08-28T21:31:06.468Z,6.47
2017-08-28T21:33:35.212Z,6.07
2017-08-28T21:36:04.499Z,6.40
2017-08-28T21:38:32.864Z,5.57
2017-08-28T21:41:01.694Z,6.10
2017-08-28T21:43:30.168Z,6.10
2017-08-28T21:46:00.015Z,6.13
2017-08-28T21:48:28.928Z,6.63
2017-08-28T21:50:57.335Z,5.63
2017-08-28T21:53:25.700Z,6.30
2017-08-28T21:55:54.488Z,6.00
2017-08-28T21:58:22.999Z,6.13
2017-08-28T22:00:51.342Z,6.40
2017-08-28T22:03:19.974Z,7.07
2017-08-28T22:05:48.349Z,7.17
2017-08-28T22:08:16.682Z,6.50
2017-08-28T22:10:45.538Z,6.17
2017-08-28T22:13:15.294Z,6.40
2017-08-28T22:15:45.371Z,6.23
2017-08-28T22:18:14.088Z,6.50
2017-08-28T22:20:42.444Z,6.90
2017-08-28T22:23:11.709Z,6.30
2017-08-28T22:25:40.336Z,6.27
2017-08-28T22:28:09.006Z,6.37
2017-08-28T22:30:38.509Z,6.40
2017-08-28T22:33:07.982Z,5.97
2017-08-28T22:35:37.393Z,6.80
2017-08-28T22:38:05.764Z,6.50
2017-08-28T22:40:35.426Z,6.27
2017-08-28T22:43:03.796Z,6.93
2017-08-28T22:45:32.183Z,6.00
2017-08-28T22:48:01.074Z,6.57
2017-08-28T22:50:30.062Z,6.80
2017-08-28T22:52:58.437Z,6.50
2017-08-28T22:55:27.330Z,6.40
2017-08-28T22:57:55.688Z,6.47
2017-08-28T23:00:24.783Z,6.90
2017-08-28T23:02:53.424Z,7.10
2017-08-28T23:05:21.778Z,7.10
2017-08-28T23:07:50.174Z,6.93
2017-08-28T23:10:18.862Z,6.53
2017-08-28T23:12:47.199Z,6.57
2017-08-28T23:15:16.743Z,6.40
2017-08-28T23:17:45.708Z,7.13
2017-08-28T23:20:14.068Z,6.30
2017-08-28T23:22:43.250Z,5.70
2017-08-28T23:25:12.216Z,6.50
2017-08-28T23:27:41.356Z,6.00
2017-08-28T23:30:10.466Z,7.07
2017-08-28T23:32:39.322Z,6.43
2017-08-28T23:35:07.676Z,6.50
2017-08-28T23:37:36.870Z,6.43
2017-08-28T23:40:05.714Z,6.00
2017-08-28T23:42:34.061Z,6.77
2017-08-28T23:45:02.430Z,6.37
2017-08-28T23:47:31.309Z,6.00
2017-08-28T23:50:00.379Z,6.20
2017-08-28T23:52:29.391Z,5.97
2017-08-28T23:54:58.066Z,6.30
2017-08-28T23:57:26.413Z,6.23
2017-08-28T23:59:54.754Z,6.30
